Time;durP1;ratioP1;P1;durP2;ratioP2;P2;SDS_P1;SDS_P2;PMS_P1;PMS_P2;Temp;Humidity;BMP_temperature;BMP_pressure;BME280_temperature;BME280_humidity;BME280_pressure;Samples;Min_cycle;Max_cycle;Signal;HPM_P1;HPM_P2
2021/11/27 00:01:53;;;;;;;1.38;0.45;;;;;;;;;;4990867;28;20019;-71
2021/11/27 00:04:19;;;;;;;0.65;0.47;;;;;;;;;;4991715;28;20097;-71
2021/11/27 00:06:44;;;;;;;0.85;0.45;;;;;;;;;;4990978;28;20023;-71
2021/11/27 00:09:10;;;;;;;0.63;0.30;;;;;;;;;;4979600;28;20125;-71
2021/11/27 00:11:35;;;;;;;0.80;0.70;;;;;;;;;;4993541;28;20025;-71
2021/11/27 00:14:01;;;;;;;6.90;0.20;;;;;;;;;;5011161;28;20029;-71
2021/11/27 00:16:26;;;;;;;0.38;0.35;;;;;;;;;;4990167;28;20029;-71
2021/11/27 00:18:51;;;;;;;0.30;0.20;;;;;;;;;;4986900;28;20128;-71
2021/11/27 00:21:19;;;;;;;0.47;0.25;;;;;;;;;;4990994;28;20025;-71
2021/11/27 00:23:45;;;;;;;0.20;0.20;;;;;;;;;;4985243;28;20010;-71
2021/11/27 00:26:12;;;;;;;1.67;0.50;;;;;;;;;;4990208;28;20475;-71
2021/11/27 00:28:37;;;;;;;2.92;0.47;;;;;;;;;;4990672;28;20026;-71
2021/11/27 00:31:07;;;;;;;1.13;0.32;;;;;;;;;;4991431;28;20085;-71
2021/11/27 00:33:32;;;;;;;1.35;0.60;;;;;;;;;;4991392;28;20030;-71
2021/11/27 00:35:58;;;;;;;0.95;0.32;;;;;;;;;;4977754;28;20391;-71
2021/11/27 00:38:24;;;;;;;0.70;0.47;;;;;;;;;;4979129;28;20022;-71
2021/11/27 00:40:50;;;;;;;0.32;0.20;;;;;;;;;;4990359;28;20046;-71
2021/11/27 00:43:15;;;;;;;0.43;0.40;;;;;;;;;;4991231;28;20018;-71
2021/11/27 00:45:41;;;;;;;0.28;0.22;;;;;;;;;;4991151;28;20043;-71
2021/11/27 00:48:07;;;;;;;0.40;0.30;;;;;;;;;;4990941;28;20030;-71
2021/11/27 00:50:35;;;;;;;0.30;0.30;;;;;;;;;;4988442;28;20463;-71
2021/11/27 00:53:02;;;;;;;0.47;0.35;;;;;;;;;;4987150;28;20026;-71
2021/11/27 00:55:28;;;;;;;1.95;0.50;;;;;;;;;;4990942;28;20034;-71
2021/11/27 00:57:53;;;;;;;0.25;0.20;;;;;;;;;;4990873;28;20033;-71
2021/11/27 01:00:22;;;;;;;0.30;0.28;;;;;;;;;;4990285;28;20019;-71
2021/11/27 01:02:49;;;;;;;1.85;0.40;;;;;;;;;;4987907;28;20029;-71
2021/11/27 01:05:14;;;;;;;0.73;0.40;;;;;;;;;;4981991;28;20387;-71
2021/11/27 01:07:40;;;;;;;0.22;0.22;;;;;;;;;;4990579;28;20041;-71
2021/11/27 01:10:07;;;;;;;1.30;0.43;;;;;;;;;;4990582;28;20379;-71
2021/11/27 01:12:32;;;;;;;0.65;0.52;;;;;;;;;;4989860;28;20273;-71
2021/11/27 01:14:57;;;;;;;0.98;0.40;;;;;;;;;;4989924;28;20030;-71
2021/11/27 01:17:23;;;;;;;1.00;0.60;;;;;;;;;;4988863;28;20390;-71
2021/11/27 01:19:48;;;;;;;0.40;0.25;;;;;;;;;;4985100;28;20376;-71
2021/11/27 01:22:15;;;;;;;1.35;0.50;;;;;;;;;;4988819;28;20030;-71
2021/11/27 01:24:41;;;;;;;0.80;0.38;;;;;;;;;;4990695;28;20446;-71
2021/11/27 01:27:06;;;;;;;0.93;0.40;;;;;;;;;;4990750;28;20026;-71
2021/11/27 01:29:32;;;;;;;2.92;0.90;;;;;;;;;;4990570;28;20085;-71
2021/11/27 01:31:58;;;;;;;0.65;0.22;;;;;;;;;;4990194;28;20110;-71
2021/11/27 01:34:23;;;;;;;2.00;0.60;;;;;;;;;;4990838;28;20445;-71
2021/11/27 01:36:48;;;;;;;0.28;0.28;;;;;;;;;;4988561;28;20038;-71
2021/11/27 01:39:14;;;;;;;2.15;0.68;;;;;;;;;;4991848;28;20024;-71
2021/11/27 01:41:40;;;;;;;1.67;0.80;;;;;;;;;;4990430;28;20467;-71
2021/11/27 01:44:05;;;;;;;1.55;0.95;;;;;;;;;;4990821;28;20105;-71
2021/11/27 01:46:30;;;;;;;0.32;0.30;;;;;;;;;;4990325;28;20110;-71
2021/11/27 01:48:56;;;;;;;1.10;0.50;;;;;;;;;;4990876;28;20092;-71
2021/11/27 01:51:22;;;;;;;0.52;0.32;;;;;;;;;;4988158;28;20041;-71
2021/11/27 01:53:55;;;;;;;1.30;0.50;;;;;;;;;;4990041;28;20030;-71
2021/11/27 01:56:22;;;;;;;5.10;0.60;;;;;;;;;;4990438;28;20021;-71
2021/11/27 01:58:47;;;;;;;0.43;0.20;;;;;;;;;;4989272;28;20506;-71
2021/11/27 02:01:15;;;;;;;0.15;0.13;;;;;;;;;;4982997;28;20031;-72
2021/11/27 02:03:41;;;;;;;0.93;0.52;;;;;;;;;;4990042;28;20184;-71
2021/11/27 02:06:07;;;;;;;2.40;0.50;;;;;;;;;;4983242;28;20105;-71
2021/11/27 02:08:32;;;;;;;0.80;0.47;;;;;;;;;;4990365;28;20022;-71
2021/11/27 02:10:58;;;;;;;0.98;0.45;;;;;;;;;;4990069;28;20053;-71
2021/11/27 02:13:24;;;;;;;0.20;0.20;;;;;;;;;;4990132;28;20486;-71
2021/11/27 02:15:49;;;;;;;1.05;0.63;;;;;;;;;;4986942;28;20356;-71
2021/11/27 02:18:14;;;;;;;0.82;0.20;;;;;;;;;;4985585;28;20019;-71
2021/11/27 02:20:41;;;;;;;0.20;0.20;;;;;;;;;;4979048;28;20084;-71
2021/11/27 02:23:07;;;;;;;0.75;0.38;;;;;;;;;;4988827;28;20399;-71
2021/11/27 02:25:33;;;;;;;1.33;0.70;;;;;;;;;;4990148;28;20054;-71
2021/11/27 02:27:58;;;;;;;0.70;0.28;;;;;;;;;;4991288;28;20069;-71
2021/11/27 02:30:23;;;;;;;0.40;0.30;;;;;;;;;;4992644;28;20032;-71
2021/11/27 02:32:49;;;;;;;0.82;0.28;;;;;;;;;;4985212;28;20023;-71
2021/11/27 02:35:14;;;;;;;0.98;0.40;;;;;;;;;;4981666;28;20030;-71
2021/11/27 02:37:40;;;;;;;2.03;0.63;;;;;;;;;;4992917;28;20105;-71
2021/11/27 02:40:06;;;;;;;2.13;0.30;;;;;;;;;;4992967;28;20106;-71
2021/11/27 02:42:31;;;;;;;0.40;0.30;;;;;;;;;;4993049;28;20399;-71
2021/11/27 02:44:57;;;;;;;1.10;0.55;;;;;;;;;;4991350;28;20027;-71
2021/11/27 02:47:22;;;;;;;2.00;0.70;;;;;;;;;;4993714;28;20059;-71
2021/11/27 02:49:47;;;;;;;1.00;0.55;;;;;;;;;;4985030;28;20459;-71
2021/11/27 02:52:12;;;;;;;1.27;0.60;;;;;;;;;;4993153;28;20030;-71
2021/11/27 02:54:38;;;;;;;0.70;0.55;;;;;;;;;;4992872;28;20082;-71
2021/11/27 02:57:04;;;;;;;0.20;0.20;;;;;;;;;;4992957;28;20049;-71
2021/11/27 02:59:29;;;;;;;0.60;0.40;;;;;;;;;;4992180;28;20387;-71
2021/11/27 03:01:56;;;;;;;1.77;0.60;;;;;;;;;;4992649;28;20021;-71
2021/11/27 03:04:22;;;;;;;0.28;0.25;;;;;;;;;;4992727;28;20022;-71
2021/11/27 03:06:47;;;;;;;0.35;0.28;;;;;;;;;;4993191;28;20030;-71
2021/11/27 03:09:17;;;;;;;0.60;0.40;;;;;;;;;;4991992;28;20498;-71
2021/11/27 03:11:43;;;;;;;1.17;0.75;;;;;;;;;;4992926;28;20169;-71
2021/11/27 03:14:09;;;;;;;0.93;0.40;;;;;;;;;;4982119;28;20097;-71
2021/11/27 03:16:38;;;;;;;1.30;0.52;;;;;;;;;;4990972;28;20019;-71
2021/11/27 03:19:03;;;;;;;0.38;0.38;;;;;;;;;;4992403;28;20058;-71
2021/11/27 03:21:28;;;;;;;1.45;0.52;;;;;;;;;;4991723;28;20529;-71
2021/11/27 03:23:53;;;;;;;1.20;0.75;;;;;;;;;;4992701;28;20018;-71
2021/11/27 03:26:19;;;;;;;1.60;0.82;;;;;;;;;;4992547;28;20022;-71
2021/11/27 03:28:44;;;;;;;0.80;0.40;;;;;;;;;;4991144;28;20035;-71
2021/11/27 03:31:10;;;;;;;0.52;0.52;;;;;;;;;;4991698;28;20027;-71
2021/11/27 03:33:35;;;;;;;4.20;1.20;;;;;;;;;;4992758;28;20027;-71
2021/11/27 03:36:00;;;;;;;1.73;1.05;;;;;;;;;;4992662;28;20022;-71
2021/11/27 03:38:25;;;;;;;2.78;1.27;;;;;;;;;;4992201;28;20019;-71
2021/11/27 03:40:51;;;;;;;1.58;0.75;;;;;;;;;;4992214;28;20015;-71
2021/11/27 03:43:16;;;;;;;1.65;1.08;;;;;;;;;;4990341;28;20081;-71
2021/11/27 03:45:42;;;;;;;6.65;2.65;;;;;;;;;;4994891;28;20049;-71
2021/11/27 03:48:14;;;;;;;3.03;1.88;;;;;;;;;;4995211;28;20168;-71
2021/11/27 03:50:42;;;;;;;3.60;1.58;;;;;;;;;;4994444;28;20577;-71
2021/11/27 03:53:08;;;;;;;6.78;1.65;;;;;;;;;;4994436;28;20478;-71
2021/11/27 03:55:34;;;;;;;5.15;2.28;;;;;;;;;;4990904;28;20032;-71
2021/11/27 03:58:00;;;;;;;4.25;2.35;;;;;;;;;;4982563;28;20504;-72
2021/11/27 04:00:26;;;;;;;3.80;2.83;;;;;;;;;;4991946;28;20022;-71
2021/11/27 04:02:51;;;;;;;5.47;3.58;;;;;;;;;;4983279;28;20098;-71
2021/11/27 04:05:18;;;;;;;6.28;3.85;;;;;;;;;;4992511;28;20014;-71
2021/11/27 04:07:43;;;;;;;6.85;4.53;;;;;;;;;;4993926;28;20031;-72
2021/11/27 04:10:08;;;;;;;8.52;4.60;;;;;;;;;;4991829;28;20026;-71
2021/11/27 04:12:34;;;;;;;8.30;4.95;;;;;;;;;;4981494;28;20026;-71
2021/11/27 04:14:59;;;;;;;6.32;3.85;;;;;;;;;;4991660;28;20423;-71
2021/11/27 04:17:24;;;;;;;9.10;4.35;;;;;;;;;;4992414;28;20093;-71
2021/11/27 04:19:50;;;;;;;9.23;4.53;;;;;;;;;;4991780;28;20026;-71
2021/11/27 04:22:15;;;;;;;7.97;4.32;;;;;;;;;;4991565;28;20062;-71
2021/11/27 04:24:41;;;;;;;7.97;4.82;;;;;;;;;;4988398;28;20388;-71
2021/11/27 04:27:06;;;;;;;11.43;4.55;;;;;;;;;;4991513;28;20031;-71
2021/11/27 04:29:32;;;;;;;7.82;4.93;;;;;;;;;;4983582;28;20033;-71
2021/11/27 04:31:57;;;;;;;9.82;5.47;;;;;;;;;;4991328;28;20018;-71
2021/11/27 04:34:22;;;;;;;8.20;5.28;;;;;;;;;;4991634;28;20023;-71
2021/11/27 04:36:47;;;;;;;11.00;5.60;;;;;;;;;;4990810;28;20034;-71
2021/11/27 04:39:13;;;;;;;9.95;5.43;;;;;;;;;;4990528;28;20115;-71
2021/11/27 04:41:38;;;;;;;11.23;5.40;;;;;;;;;;4990811;28;20030;-71
2021/11/27 04:44:03;;;;;;;7.57;4.65;;;;;;;;;;4990514;28;20328;-71
2021/11/27 04:46:28;;;;;;;10.27;5.85;;;;;;;;;;4990990;28;20293;-71
2021/11/27 04:48:54;;;;;;;9.25;4.50;;;;;;;;;;4991609;28;20030;-71
2021/11/27 04:51:19;;;;;;;10.02;4.32;;;;;;;;;;4990581;28;20026;-71
2021/11/27 04:53:44;;;;;;;6.82;3.75;;;;;;;;;;4987622;28;20117;-71
2021/11/27 04:56:09;;;;;;;8.82;3.50;;;;;;;;;;4990795;28;20061;-71
2021/11/27 04:58:35;;;;;;;7.80;4.95;;;;;;;;;;4982530;28;20030;-71
2021/11/27 05:01:00;;;;;;;6.95;4.57;;;;;;;;;;4990715;28;20551;-71
2021/11/27 05:03:25;;;;;;;7.32;4.22;;;;;;;;;;4990950;28;20030;-71
2021/11/27 05:05:51;;;;;;;7.55;4.40;;;;;;;;;;4984885;28;20030;-71
2021/11/27 05:08:16;;;;;;;9.55;4.45;;;;;;;;;;4989243;28;20031;-71
2021/11/27 05:10:41;;;;;;;9.93;4.53;;;;;;;;;;4990424;28;20026;-71
2021/11/27 05:13:06;;;;;;;5.72;4.22;;;;;;;;;;4989196;28;20026;-71
2021/11/27 05:15:31;;;;;;;6.97;3.95;;;;;;;;;;4990603;28;20146;-71
2021/11/27 05:17:57;;;;;;;8.15;5.03;;;;;;;;;;4990670;28;20161;-71
2021/11/27 05:20:22;;;;;;;10.07;5.05;;;;;;;;;;4990260;28;20023;-71
2021/11/27 05:22:47;;;;;;;10.35;5.03;;;;;;;;;;4990407;28;20022;-70
2021/11/27 05:25:12;;;;;;;10.20;5.75;;;;;;;;;;4990747;28;20424;-71
2021/11/27 05:27:38;;;;;;;9.73;5.30;;;;;;;;;;4990506;28;20503;-71
2021/11/27 05:30:09;;;;;;;12.13;6.07;;;;;;;;;;4996248;28;20026;-71
2021/11/27 05:32:49;;;;;;;12.63;6.68;;;;;;;;;;4990610;28;20030;-71
2021/11/27 05:35:15;;;;;;;12.85;6.93;;;;;;;;;;4982168;28;20023;-71
2021/11/27 05:37:40;;;;;;;13.32;5.70;;;;;;;;;;4989417;28;20045;-71
2021/11/27 05:40:05;;;;;;;12.70;5.40;;;;;;;;;;4990551;28;20029;-70
2021/11/27 05:42:31;;;;;;;7.43;4.30;;;;;;;;;;4989922;28;20046;-70
2021/11/27 05:44:56;;;;;;;8.32;4.63;;;;;;;;;;4988273;28;20027;-70
2021/11/27 05:47:23;;;;;;;8.20;3.83;;;;;;;;;;4990540;28;20064;-70
2021/11/27 05:49:49;;;;;;;7.50;4.35;;;;;;;;;;4990228;28;20049;-70
2021/11/27 05:52:14;;;;;;;6.85;3.78;;;;;;;;;;4989502;28;20113;-71
2021/11/27 05:54:39;;;;;;;10.73;3.88;;;;;;;;;;4990784;28;20101;-71
2021/11/27 05:57:05;;;;;;;8.55;4.78;;;;;;;;;;4989184;28;20165;-71
2021/11/27 05:59:30;;;;;;;11.55;5.32;;;;;;;;;;4990736;28;20019;-71
2021/11/27 06:01:55;;;;;;;9.85;5.53;;;;;;;;;;4989920;28;20480;-71
2021/11/27 06:04:22;;;;;;;10.60;5.60;;;;;;;;;;4993602;28;20049;-71
2021/11/27 06:06:48;;;;;;;15.10;6.82;;;;;;;;;;4993572;28;20379;-71
2021/11/27 06:09:13;;;;;;;13.85;5.00;;;;;;;;;;4993314;28;20027;-70
2021/11/27 06:11:38;;;;;;;10.73;5.28;;;;;;;;;;4993710;28;20113;-71
2021/11/27 06:14:03;;;;;;;8.57;3.73;;;;;;;;;;4989425;28;20014;-71
2021/11/27 06:16:28;;;;;;;4.30;2.28;;;;;;;;;;4994343;28;20743;-71
2021/11/27 06:18:54;;;;;;;10.80;3.50;;;;;;;;;;4993470;28;20022;-71
2021/11/27 06:21:21;;;;;;;7.65;4.45;;;;;;;;;;4993621;28;20390;-71
2021/11/27 06:23:50;;;;;;;9.13;4.78;;;;;;;;;;4990769;28;20307;-71
2021/11/27 06:26:16;;;;;;;19.57;7.53;;;;;;;;;;4986996;28;20475;-71
2021/11/27 06:28:41;;;;;;;8.57;3.30;;;;;;;;;;4993893;28;20261;-71
2021/11/27 06:31:06;;;;;;;7.82;3.72;;;;;;;;;;4993791;28;20030;-71
2021/11/27 06:33:31;;;;;;;9.07;3.92;;;;;;;;;;4993239;28;20049;-71
2021/11/27 06:35:56;;;;;;;7.28;4.40;;;;;;;;;;4993415;28;20042;-71
2021/11/27 06:38:22;;;;;;;8.70;3.72;;;;;;;;;;4993923;28;20038;-71
2021/11/27 06:40:48;;;;;;;9.60;3.65;;;;;;;;;;4991777;28;20018;-70
2021/11/27 06:43:13;;;;;;;16.40;4.85;;;;;;;;;;4993059;28;20015;-71
2021/11/27 06:45:38;;;;;;;9.20;4.25;;;;;;;;;;4994127;28;20022;-71
2021/11/27 06:48:03;;;;;;;9.63;4.28;;;;;;;;;;4995041;28;20038;-71
2021/11/27 06:50:29;;;;;;;9.25;4.63;;;;;;;;;;4993204;28;20249;-71
2021/11/27 06:52:54;;;;;;;7.47;4.25;;;;;;;;;;4993002;28;20445;-71
2021/11/27 06:55:20;;;;;;;9.35;4.53;;;;;;;;;;4991664;28;20034;-71
2021/11/27 06:57:45;;;;;;;9.10;4.70;;;;;;;;;;4991170;28;20068;-71
2021/11/27 07:00:10;;;;;;;9.07;4.70;;;;;;;;;;5001708;28;20448;-71
2021/11/27 07:02:36;;;;;;;10.13;5.53;;;;;;;;;;4989022;28;20072;-71
2021/11/27 07:05:01;;;;;;;10.00;4.55;;;;;;;;;;4993454;28;20053;-71
2021/11/27 07:07:26;;;;;;;8.57;4.85;;;;;;;;;;4990820;28;20031;-71
2021/11/27 07:09:52;;;;;;;11.15;5.03;;;;;;;;;;4990302;28;20467;-71
2021/11/27 07:12:17;;;;;;;9.60;6.05;;;;;;;;;;4990662;28;20034;-71
2021/11/27 07:14:42;;;;;;;13.55;5.15;;;;;;;;;;4989827;28;20088;-72
2021/11/27 07:17:07;;;;;;;10.32;5.15;;;;;;;;;;4987555;28;20025;-72
2021/11/27 07:19:33;;;;;;;11.15;5.78;;;;;;;;;;4995166;28;20026;-72
2021/11/27 07:21:59;;;;;;;11.75;5.30;;;;;;;;;;4979082;28;20031;-72
2021/11/27 07:24:24;;;;;;;13.15;5.90;;;;;;;;;;4977277;28;20050;-72
2021/11/27 07:26:49;;;;;;;12.63;6.50;;;;;;;;;;4988468;28;20034;-72
2021/11/27 07:29:14;;;;;;;19.02;6.57;;;;;;;;;;4989015;28;20026;-72
2021/11/27 07:31:40;;;;;;;13.25;6.65;;;;;;;;;;4974958;28;20022;-72
2021/11/27 07:34:05;;;;;;;10.73;5.45;;;;;;;;;;4987661;28;20033;-72
2021/11/27 07:36:30;;;;;;;7.18;4.38;;;;;;;;;;4987926;28;20026;-72
2021/11/27 07:38:55;;;;;;;13.73;6.45;;;;;;;;;;4997653;28;20415;-72
2021/11/27 07:41:20;;;;;;;13.27;6.35;;;;;;;;;;4990243;28;20014;-72
2021/11/27 07:43:46;;;;;;;13.57;6.55;;;;;;;;;;4981587;28;20023;-72
2021/11/27 07:46:12;;;;;;;14.20;4.78;;;;;;;;;;4971652;28;20090;-72
2021/11/27 07:48:37;;;;;;;19.42;6.78;;;;;;;;;;4985245;28;20030;-72
2021/11/27 07:51:03;;;;;;;15.63;6.50;;;;;;;;;;4979505;28;20026;-71
2021/11/27 07:53:29;;;;;;;11.55;6.05;;;;;;;;;;4984411;28;20045;-72
2021/11/27 07:55:54;;;;;;;14.55;6.35;;;;;;;;;;4989283;28;20023;-72
2021/11/27 07:58:19;;;;;;;15.82;6.55;;;;;;;;;;4990793;28;20088;-72
2021/11/27 08:00:44;;;;;;;10.90;6.13;;;;;;;;;;4989852;28;20035;-72
2021/11/27 08:03:09;;;;;;;11.35;5.80;;;;;;;;;;4975659;28;20026;-72
2021/11/27 08:05:35;;;;;;;13.00;6.25;;;;;;;;;;4990384;28;20141;-72
2021/11/27 08:08:00;;;;;;;11.25;5.60;;;;;;;;;;4974363;28;20034;-72
2021/11/27 08:10:25;;;;;;;16.30;7.13;;;;;;;;;;4970790;28;20042;-71
2021/11/27 08:12:50;;;;;;;14.10;6.72;;;;;;;;;;4972237;28;20719;-72
2021/11/27 08:15:16;;;;;;;11.93;6.70;;;;;;;;;;4971266;28;20059;-72
2021/11/27 08:17:41;;;;;;;10.90;5.60;;;;;;;;;;4990754;28;20099;-72
2021/11/27 08:20:07;;;;;;;15.23;6.30;;;;;;;;;;4992613;28;20015;-72
2021/11/27 08:22:33;;;;;;;13.45;5.85;;;;;;;;;;4989353;28;20041;-72
2021/11/27 08:24:58;;;;;;;12.52;6.20;;;;;;;;;;4998269;28;20018;-72
2021/11/27 08:27:27;;;;;;;12.70;6.57;;;;;;;;;;4989369;28;20108;-72
2021/11/27 08:29:52;;;;;;;13.60;6.20;;;;;;;;;;4997874;28;20089;-72
2021/11/27 08:32:18;;;;;;;12.23;5.93;;;;;;;;;;5007139;28;20731;-72
2021/11/27 08:34:43;;;;;;;14.15;6.60;;;;;;;;;;5009210;28;20026;-72
2021/11/27 08:37:08;;;;;;;17.80;5.97;;;;;;;;;;4989258;28;20030;-72
2021/11/27 08:39:33;;;;;;;10.32;5.65;;;;;;;;;;4991941;28;20595;-72
2021/11/27 08:41:59;;;;;;;19.05;6.32;;;;;;;;;;4990787;28;20077;-72
2021/11/27 08:44:25;;;;;;;11.43;5.47;;;;;;;;;;4991657;28;20014;-71
2021/11/27 08:46:50;;;;;;;11.70;5.43;;;;;;;;;;4991036;28;20487;-71
2021/11/27 08:49:15;;;;;;;11.80;5.95;;;;;;;;;;4991637;28;20018;-72
2021/11/27 08:51:42;;;;;;;32.35;3.47;;;;;;;;;;4989210;28;20022;-71
2021/11/27 08:54:08;;;;;;;16.40;4.90;;;;;;;;;;4972117;28;20023;-71
2021/11/27 08:56:33;;;;;;;10.98;5.63;;;;;;;;;;4986715;28;20028;-71
2021/11/27 08:58:58;;;;;;;9.50;4.68;;;;;;;;;;4984799;28;20052;-71
2021/11/27 09:01:24;;;;;;;10.52;3.95;;;;;;;;;;4989196;28;20018;-71
2021/11/27 09:03:49;;;;;;;11.45;4.88;;;;;;;;;;4991316;28;20022;-71
2021/11/27 09:06:14;;;;;;;9.52;4.85;;;;;;;;;;4986035;28;20026;-71
2021/11/27 09:08:40;;;;;;;6.68;2.72;;;;;;;;;;4988764;28;20073;-71
2021/11/27 09:11:07;;;;;;;12.95;4.18;;;;;;;;;;4990583;28;20018;-71
2021/11/27 09:13:32;;;;;;;12.77;5.43;;;;;;;;;;4985806;28;20549;-71
2021/11/27 09:15:58;;;;;;;13.30;5.07;;;;;;;;;;4990626;28;20054;-71
2021/11/27 09:18:23;;;;;;;5.68;3.38;;;;;;;;;;4991030;28;20034;-72
2021/11/27 09:20:48;;;;;;;8.85;4.95;;;;;;;;;;4992531;28;20026;-70
2021/11/27 09:23:14;;;;;;;9.85;4.80;;;;;;;;;;5004252;28;20029;-71
2021/11/27 09:25:39;;;;;;;7.82;3.90;;;;;;;;;;5003812;28;20053;-71
2021/11/27 09:28:04;;;;;;;10.55;5.57;;;;;;;;;;4989048;28;20108;-71
2021/11/27 09:30:30;;;;;;;11.30;4.20;;;;;;;;;;4988586;28;20026;-71
2021/11/27 09:32:55;;;;;;;17.35;4.32;;;;;;;;;;4989396;28;20033;-71
2021/11/27 09:35:21;;;;;;;11.68;5.03;;;;;;;;;;4989076;28;20062;-71
2021/11/27 09:37:46;;;;;;;9.00;2.65;;;;;;;;;;4996757;28;20072;-71
2021/11/27 09:40:11;;;;;;;16.13;5.28;;;;;;;;;;4995297;28;20018;-71
2021/11/27 09:42:37;;;;;;;4.85;3.50;;;;;;;;;;4999646;28;20029;-71
2021/11/27 09:45:03;;;;;;;4.68;2.45;;;;;;;;;;4990903;28;20022;-71
2021/11/27 09:47:29;;;;;;;5.82;3.85;;;;;;;;;;4989772;28;20022;-71
2021/11/27 09:49:55;;;;;;;10.38;5.20;;;;;;;;;;4986041;28;20027;-71
2021/11/27 09:52:20;;;;;;;9.27;4.03;;;;;;;;;;4988971;28;20402;-72
2021/11/27 09:54:45;;;;;;;8.87;5.03;;;;;;;;;;4991076;28;20026;-72
2021/11/27 09:57:11;;;;;;;8.85;4.03;;;;;;;;;;4992335;28;20356;-72
2021/11/27 09:59:40;;;;;;;9.35;4.90;;;;;;;;;;4991867;28;20025;-72
2021/11/27 10:02:06;;;;;;;19.13;2.88;;;;;;;;;;4998271;28;20032;-72
2021/11/27 10:04:32;;;;;;;10.25;5.10;;;;;;;;;;4995016;28;20057;-71
2021/11/27 10:06:59;;;;;;;5.10;2.70;;;;;;;;;;5006351;28;20051;-71
2021/11/27 10:09:24;;;;;;;9.85;4.07;;;;;;;;;;4990447;28;20015;-72
2021/11/27 10:11:50;;;;;;;3.95;2.20;;;;;;;;;;5000168;28;20027;-72
2021/11/27 10:14:16;;;;;;;14.73;5.70;;;;;;;;;;4997489;28;20639;-72
2021/11/27 10:17:02;;;;;;;10.73;4.40;;;;;;;;;;4993443;28;20033;-72
2021/11/27 10:19:28;;;;;;;12.65;4.40;;;;;;;;;;4999257;28;20128;-72
2021/11/27 10:21:54;;;;;;;7.80;4.28;;;;;;;;;;4986335;28;20022;-72
2021/11/27 10:24:21;;;;;;;15.10;5.13;;;;;;;;;;4992527;28;20101;-72
2021/11/27 10:26:46;;;;;;;9.98;4.32;;;;;;;;;;4992856;28;20030;-72
2021/11/27 10:29:14;;;;;;;11.68;5.10;;;;;;;;;;4993019;28;20029;-72
2021/11/27 10:31:40;;;;;;;7.00;2.63;;;;;;;;;;4985650;28;20097;-72
2021/11/27 10:34:05;;;;;;;16.80;5.30;;;;;;;;;;4989191;28;20105;-72
2021/11/27 10:36:31;;;;;;;13.18;3.40;;;;;;;;;;4990437;28;20080;-72
2021/11/27 10:39:03;;;;;;;10.70;3.40;;;;;;;;;;4993564;28;20018;-72
2021/11/27 10:41:35;;;;;;;10.38;3.55;;;;;;;;;;4992936;28;20026;-72
2021/11/27 10:44:01;;;;;;;9.48;4.05;;;;;;;;;;4992854;28;20022;-72
2021/11/27 10:46:28;;;;;;;12.38;4.20;;;;;;;;;;4992114;28;20089;-72
2021/11/27 10:48:53;;;;;;;5.03;2.33;;;;;;;;;;4991402;28;20018;-72
2021/11/27 10:51:19;;;;;;;8.57;2.05;;;;;;;;;;4991747;28;20033;-72
2021/11/27 10:53:51;;;;;;;20.55;3.42;;;;;;;;;;4992654;28;20800;-72
2021/11/27 10:56:17;;;;;;;12.73;3.47;;;;;;;;;;4989458;28;20022;-72
2021/11/27 10:58:57;;;;;;;11.63;3.80;;;;;;;;;;4986482;28;20042;-72
2021/11/27 11:01:22;;;;;;;10.13;2.83;;;;;;;;;;4981134;28;20015;-72
2021/11/27 11:03:47;;;;;;;11.73;2.95;;;;;;;;;;4989070;28;20487;-72
2021/11/27 11:06:20;;;;;;;9.55;3.08;;;;;;;;;;4992357;28;20080;-72
2021/11/27 11:08:47;;;;;;;14.43;3.42;;;;;;;;;;4992740;28;20117;-72
2021/11/27 11:11:24;;;;;;;8.73;3.35;;;;;;;;;;4990424;28;20164;-72
2021/11/27 11:13:53;;;;;;;9.20;3.30;;;;;;;;;;4987688;28;20056;-72
2021/11/27 11:16:18;;;;;;;7.10;2.67;;;;;;;;;;4990482;28;20196;-72
2021/11/27 11:18:45;;;;;;;8.82;1.83;;;;;;;;;;4989021;28;20121;-72
2021/11/27 11:21:10;;;;;;;9.45;3.72;;;;;;;;;;4990800;28;20053;-72
2021/11/27 11:23:36;;;;;;;13.90;3.55;;;;;;;;;;4992460;28;20108;-72
2021/11/27 11:26:04;;;;;;;12.65;1.40;;;;;;;;;;4992309;28;20071;-73
2021/11/27 11:28:31;;;;;;;6.80;2.90;;;;;;;;;;4992539;28;20518;-72
2021/11/27 11:31:00;;;;;;;14.93;2.65;;;;;;;;;;4987600;28;20027;-72
2021/11/27 11:33:25;;;;;;;17.97;4.00;;;;;;;;;;4988398;28;20161;-72
2021/11/27 11:35:51;;;;;;;9.85;3.03;;;;;;;;;;4991724;28;20101;-72
2021/11/27 11:38:17;;;;;;;7.65;2.78;;;;;;;;;;4990662;28;20026;-72
2021/11/27 11:40:43;;;;;;;9.15;2.38;;;;;;;;;;4987931;28;20038;-71
2021/11/27 11:43:08;;;;;;;4.95;1.85;;;;;;;;;;4990944;28;20064;-71
2021/11/27 11:45:34;;;;;;;8.23;3.92;;;;;;;;;;4986037;28;20022;-71
2021/11/27 11:47:59;;;;;;;12.68;2.85;;;;;;;;;;4986239;28;20033;-72
2021/11/27 11:50:26;;;;;;;19.63;2.40;;;;;;;;;;4986604;28;20380;-72
2021/11/27 11:53:10;;;;;;;10.55;2.08;;;;;;;;;;4991163;28;20050;-72
2021/11/27 11:55:36;;;;;;;9.88;2.97;;;;;;;;;;4981021;28;20030;-72
2021/11/27 11:58:02;;;;;;;7.00;2.10;;;;;;;;;;4987946;28;20027;-72
2021/11/27 12:00:31;;;;;;;5.32;1.83;;;;;;;;;;4988176;28;20391;-73
2021/11/27 12:03:13;;;;;;;10.67;2.20;;;;;;;;;;4989275;28;20102;-73
2021/11/27 12:05:54;;;;;;;9.65;2.70;;;;;;;;;;4989498;28;20018;-73
2021/11/27 12:08:39;;;;;;;3.85;2.05;;;;;;;;;;4988190;28;20034;-73
2021/11/27 12:11:04;;;;;;;4.00;1.42;;;;;;;;;;4991369;28;20030;-73
2021/11/27 12:13:32;;;;;;;9.73;2.67;;;;;;;;;;4990063;28;20103;-72
2021/11/27 12:16:01;;;;;;;9.85;2.20;;;;;;;;;;4990226;28;20054;-72
2021/11/27 12:18:26;;;;;;;12.70;2.97;;;;;;;;;;4991774;28;20022;-72
2021/11/27 12:20:53;;;;;;;8.25;1.75;;;;;;;;;;4990040;28;20386;-72
2021/11/27 12:23:28;;;;;;;10.43;1.73;;;;;;;;;;4987599;28;20480;-72
2021/11/27 12:26:06;;;;;;;11.45;2.60;;;;;;;;;;4988102;28;20130;-73
2021/11/27 12:28:31;;;;;;;16.27;3.30;;;;;;;;;;4988860;28;20025;-73
2021/11/27 12:30:57;;;;;;;10.90;3.05;;;;;;;;;;4990336;28;20022;-73
2021/11/27 12:33:41;;;;;;;10.73;3.85;;;;;;;;;;4991294;28;20097;-73
2021/11/27 12:36:07;;;;;;;20.23;3.40;;;;;;;;;;4991850;28;20026;-71
2021/11/27 12:38:32;;;;;;;19.40;4.32;;;;;;;;;;4988273;28;20022;-73
2021/11/27 12:40:58;;;;;;;16.45;4.47;;;;;;;;;;4983077;28;20022;-73
2021/11/27 12:43:24;;;;;;;13.63;5.05;;;;;;;;;;4985193;28;20463;-73
2021/11/27 12:45:51;;;;;;;13.77;4.18;;;;;;;;;;4987463;28;20029;-74
2021/11/27 12:48:28;;;;;;;5.10;2.08;;;;;;;;;;4988978;28;20046;-74
2021/11/27 12:51:26;;;;;;;10.85;3.35;;;;;;;;;;4987181;28;20062;-73
2021/11/27 12:54:00;;;;;;;7.43;1.63;;;;;;;;;;4976498;28;20117;-73
2021/11/27 12:56:26;;;;;;;8.50;2.70;;;;;;;;;;4989149;28;20029;-73
2021/11/27 12:58:51;;;;;;;9.45;2.70;;;;;;;;;;4991190;28;20358;-73
2021/11/27 13:01:26;;;;;;;8.82;2.65;;;;;;;;;;4989630;28;20090;-73
2021/11/27 13:03:52;;;;;;;10.60;3.42;;;;;;;;;;4991134;28;20114;-72
2021/11/27 13:06:17;;;;;;;12.63;2.53;;;;;;;;;;4991049;28;20029;-72
2021/11/27 13:08:42;;;;;;;7.45;2.30;;;;;;;;;;4990315;28;20026;-70
2021/11/27 13:11:08;;;;;;;11.40;2.22;;;;;;;;;;4990440;28;20395;-71
2021/11/27 13:13:37;;;;;;;11.43;2.28;;;;;;;;;;4987667;28;20037;-70
2021/11/27 13:16:06;;;;;;;8.30;2.28;;;;;;;;;;4986799;28;20033;-71
2021/11/27 13:18:31;;;;;;;16.92;2.90;;;;;;;;;;4990562;28;20058;-72
2021/11/27 13:20:58;;;;;;;14.18;3.03;;;;;;;;;;4990786;28;20116;-71
2021/11/27 13:23:25;;;;;;;10.80;2.72;;;;;;;;;;4989329;28;20495;-70
2021/11/27 13:25:52;;;;;;;8.65;2.35;;;;;;;;;;4988454;28;20029;-70
2021/11/27 13:28:20;;;;;;;21.60;3.03;;;;;;;;;;4988181;28;20039;-71
2021/11/27 13:30:45;;;;;;;12.15;2.17;;;;;;;;;;4988644;28;20375;-71
2021/11/27 13:33:11;;;;;;;12.38;2.97;;;;;;;;;;4990485;28;20029;-71
2021/11/27 13:35:37;;;;;;;22.27;4.30;;;;;;;;;;4989692;28;20391;-72
2021/11/27 13:38:03;;;;;;;7.45;1.77;;;;;;;;;;4987768;28;20105;-71
2021/11/27 13:40:29;;;;;;;5.32;2.30;;;;;;;;;;4987701;28;20587;-72
2021/11/27 13:43:00;;;;;;;5.40;1.95;;;;;;;;;;4989199;28;20038;-70
2021/11/27 13:45:25;;;;;;;10.57;2.55;;;;;;;;;;4990571;28;20041;-73
2021/11/27 13:47:57;;;;;;;6.95;1.67;;;;;;;;;;4987445;28;20464;-71
2021/11/27 13:50:23;;;;;;;7.07;2.40;;;;;;;;;;4986488;28;20022;-73
2021/11/27 13:52:49;;;;;;;3.85;1.13;;;;;;;;;;4989431;28;20085;-70
2021/11/27 13:55:16;;;;;;;6.28;1.75;;;;;;;;;;4990300;28;20085;-71
2021/11/27 13:57:42;;;;;;;10.23;2.25;;;;;;;;;;4988847;28;20061;-71
2021/11/27 14:00:16;;;;;;;7.00;2.03;;;;;;;;;;4989413;28;20054;-71
2021/11/27 14:02:42;;;;;;;5.55;1.70;;;;;;;;;;4988321;28;20018;-71
2021/11/27 14:05:07;;;;;;;10.30;3.00;;;;;;;;;;4987305;28;20082;-72
2021/11/27 14:07:40;;;;;;;12.30;2.30;;;;;;;;;;4988720;28;20097;-71
2021/11/27 14:10:24;;;;;;;6.90;2.13;;;;;;;;;;4989199;28;20027;-74
2021/11/27 14:12:59;;;;;;;5.60;1.60;;;;;;;;;;4985224;28;20053;-71
2021/11/27 14:15:29;;;;;;;7.20;1.83;;;;;;;;;;4990073;28;20057;-73
2021/11/27 14:18:08;;;;;;;4.88;1.33;;;;;;;;;;4989691;28;20081;-70
2021/11/27 14:20:35;;;;;;;9.45;1.90;;;;;;;;;;4986177;28;20082;-73
2021/11/27 14:23:00;;;;;;;10.88;1.80;;;;;;;;;;4988351;28;20041;-70
2021/11/27 14:25:31;;;;;;;6.10;1.52;;;;;;;;;;4992158;28;20492;-72
2021/11/27 14:28:08;;;;;;;11.18;2.60;;;;;;;;;;4992672;28;20018;-70
2021/11/27 14:30:35;;;;;;;5.22;1.63;;;;;;;;;;4997336;28;20392;-72
2021/11/27 14:33:17;;;;;;;6.00;1.77;;;;;;;;;;4983930;28;20022;-70
2021/11/27 14:35:51;;;;;;;17.23;3.60;;;;;;;;;;4988225;28;20084;-70